Terminal Aerodrome Forecast
Issued by NWS Twin Cities, MN

Home | Current Version | Previous Version | Graphics & Text | Print | Product List | Glossary On
Versions: 1 2 3 4 5 6 7 8 9 10 11 12 13 14 15 16 17
000
FTUS43 KMPX 190545
TAFSTC
TAF
KSTC 190545Z 1906/2006 10004KT 2SM BR OVC003
     FM190730 12006KT 1/2SM FG VV002
     FM191400 15011KT 2SM BR BKN007 OVC012
     FM191700 14014G22KT P6SM OVC015
     FM192000 14015G24KT P6SM SCT020 BKN050
     FM200200 15018G26KT P6SM SCT025 BKN100 WS018/16055KT=

USA.gov is the U.S. government's official web portal to all federal, state and local government web resources and services.